Darstellungsparameter: Aktuell verwendete Einstellungen:
Skalierung der Graphiken ... ?
xyx+y,   Skalierungsfaktor:      Skalierung: Modus: x, Faktor: 1
Darstellungszeitraum ... ?
Vom - - bis: - -   Zeitraum: 26.11.2020 - 26.11.2020
Min/Max/Avg-Anzeige ... ?
Zeige MMA aktuell
Zeige MMA Monat
Zeige MMA alles
Zeige --A aktuell
Zeige --A Monat
Zeige --A alles
Keine MMA-Anzeige
MMA:
Keine MMA-Graphiken
MMA-Basis: 26.11.2020 - 26.11.2020
Quicknavigation für Darstellung... ?
Tage:      1T, 2T, 3T, 5T -1T -2T -3T -5T +1T +2T +3T +5T
Wochen: 1W, 2W, 3W -1W -2W -3W +1W +2W +3W
Monate: 1M, 3M, 6M -1M -3M -6M +1M +3M +6M
Jahre:    1J, 3J, 5J, 10J -1J -3J -5J -10J +1J +3J +5J +10J
Nutze für die Darstellung ... ?
Originaldaten oder Mittelwerte auf ...
Stundenbasis Tagesbasis Wochenbasis
Monatsbasis Jahresbasis      Datenbasis: Original-Daten
Darstellen als:
Statistik (Auto) Statistik J:M      Darstellung:
Zur Graphik,    zurück zur Übersicht aller Sensoren.
 
Tabellarische Datenbersicht: ?
 
Sensor: Nr:Datum:Temp:Feuchte:Taupunkt:
Aussen-T/F 1 26-11-2020 00:00:00 1.6 C 96 % 1.03 C
2 26-11-2020 00:05:00 1.6 C 96 % 1.03 C
3 26-11-2020 00:10:00 1.6 C 96 % 1.03 C
4 26-11-2020 00:15:00 1.6 C 96 % 1.03 C
5 26-11-2020 00:20:00 1.6 C 96 % 1.03 C
6 26-11-2020 00:25:00 1.6 C 96 % 1.03 C
7 26-11-2020 00:30:00 1.6 C 96 % 1.03 C
8 26-11-2020 00:35:00 1.6 C 96 % 1.03 C
9 26-11-2020 00:40:00 1.7 C 96 % 1.13 C
10 26-11-2020 00:45:00 1.7 C 96 % 1.13 C
11 26-11-2020 00:50:00 1.7 C 96 % 1.13 C
12 26-11-2020 00:55:00 1.7 C 96 % 1.13 C
13 26-11-2020 01:00:00 1.7 C 96 % 1.13 C
14 26-11-2020 01:05:00 1.7 C 96 % 1.13 C
15 26-11-2020 01:10:00 1.7 C 96 % 1.13 C
16 26-11-2020 01:15:00 1.8 C 96 % 1.23 C
17 26-11-2020 01:20:00 1.8 C 96 % 1.23 C
18 26-11-2020 01:25:00 1.9 C 96 % 1.33 C
19 26-11-2020 01:30:00 2 C 96 % 1.43 C
20 26-11-2020 01:35:00 2.1 C 96 % 1.53 C
21 26-11-2020 01:40:00 2.1 C 96 % 1.53 C
22 26-11-2020 01:45:00 2.2 C 96 % 1.63 C
23 26-11-2020 01:50:00 2.2 C 96 % 1.63 C
24 26-11-2020 01:55:00 2.2 C 96 % 1.63 C
25 26-11-2020 02:00:00 2.2 C 96 % 1.63 C
Sensor: Nr:Datum:Temp:Feuchte:Taupunkt:
Aussen-T/F 26 26-11-2020 02:05:00 2.3 C 96 % 1.73 C
27 26-11-2020 02:10:00 2.3 C 96 % 1.73 C
28 26-11-2020 02:15:00 2.4 C 96 % 1.83 C
29 26-11-2020 02:20:00 2.6 C 97 % 2.17 C
30 26-11-2020 02:25:00 2.6 C 97 % 2.17 C
31 26-11-2020 02:30:00 2.7 C 97 % 2.27 C
32 26-11-2020 02:35:00 2.7 C 97 % 2.27 C
33 26-11-2020 02:40:00 2.8 C 97 % 2.37 C
34 26-11-2020 02:45:00 2.8 C 97 % 2.37 C
35 26-11-2020 02:50:00 2.9 C 97 % 2.47 C
36 26-11-2020 02:55:00 2.9 C 97 % 2.47 C
37 26-11-2020 03:00:00 2.9 C 97 % 2.47 C
38 26-11-2020 03:05:00 2.8 C 97 % 2.37 C
39 26-11-2020 03:10:00 2.8 C 97 % 2.37 C
40 26-11-2020 03:15:00 2.8 C 97 % 2.37 C
41 26-11-2020 03:20:00 2.8 C 97 % 2.37 C
42 26-11-2020 03:25:00 2.8 C 97 % 2.37 C
43 26-11-2020 03:30:00 2.8 C 97 % 2.37 C
44 26-11-2020 03:35:00 2.8 C 97 % 2.37 C
45 26-11-2020 03:40:00 2.8 C 97 % 2.37 C
46 26-11-2020 03:45:00 2.8 C 97 % 2.37 C
47 26-11-2020 03:50:00 2.8 C 97 % 2.37 C
48 26-11-2020 03:55:00 2.9 C 97 % 2.47 C
49 26-11-2020 04:00:00 2.9 C 97 % 2.47 C
50 26-11-2020 04:05:00 2.9 C 97 % 2.47 C
Sensor: Nr:Datum:Temp:Feuchte:Taupunkt:
Aussen-T/F 51 26-11-2020 04:10:00 2.9 C 97 % 2.47 C
52 26-11-2020 04:15:00 3 C 97 % 2.57 C
53 26-11-2020 04:20:00 3 C 97 % 2.57 C
54 26-11-2020 04:25:00 3.1 C 97 % 2.67 C
55 26-11-2020 04:30:00 3.1 C 97 % 2.67 C
56 26-11-2020 04:35:00 3.1 C 97 % 2.67 C
57 26-11-2020 04:40:00 3.1 C 97 % 2.67 C
58 26-11-2020 04:45:00 3.2 C 97 % 2.77 C
59 26-11-2020 04:50:00 3.2 C 97 % 2.77 C
60 26-11-2020 04:55:00 3.3 C 97 % 2.87 C
61 26-11-2020 05:00:00 3.3 C 97 % 2.87 C
62 26-11-2020 05:05:00 3.3 C 97 % 2.87 C
63 26-11-2020 05:10:00 3.3 C 97 % 2.87 C
64 26-11-2020 05:15:00 3.3 C 97 % 2.87 C
65 26-11-2020 05:20:00 3.3 C 97 % 2.87 C
66 26-11-2020 05:25:00 3.3 C 97 % 2.87 C
67 26-11-2020 05:30:00 3.3 C 97 % 2.87 C
68 26-11-2020 05:35:00 3.3 C 97 % 2.87 C
69 26-11-2020 05:40:00 3.3 C 97 % 2.87 C
70 26-11-2020 05:45:00 3.4 C 97 % 2.97 C
71 26-11-2020 05:50:00 3.3 C 97 % 2.87 C
72 26-11-2020 05:55:00 3.2 C 97 % 2.77 C
73 26-11-2020 06:00:00 3.2 C 97 % 2.77 C
74 26-11-2020 06:05:00 3.2 C 97 % 2.77 C
75 26-11-2020 06:10:00 3.2 C 97 % 2.77 C
Sensor: Nr:Datum:Temp:Feuchte:Taupunkt:
Aussen-T/F 76 26-11-2020 06:15:00 3.2 C 97 % 2.77 C
77 26-11-2020 06:20:00 3.2 C 97 % 2.77 C
78 26-11-2020 06:25:00 3.1 C 97 % 2.67 C
79 26-11-2020 06:30:00 3.1 C 96 % 2.53 C
80 26-11-2020 06:35:00 2.9 C 96 % 2.33 C
81 26-11-2020 06:40:00 2.8 C 96 % 2.23 C
82 26-11-2020 06:45:00 2.8 C 96 % 2.23 C
83 26-11-2020 06:50:00 2.8 C 96 % 2.23 C
84 26-11-2020 06:55:00 2.8 C 96 % 2.23 C
85 26-11-2020 07:00:00 2.8 C 97 % 2.37 C
86 26-11-2020 07:05:00 2.8 C 97 % 2.37 C
87 26-11-2020 07:10:00 2.9 C 97 % 2.47 C
88 26-11-2020 07:15:00 2.9 C 97 % 2.47 C
89 26-11-2020 07:20:00 2.9 C 97 % 2.47 C
90 26-11-2020 07:25:00 2.9 C 97 % 2.47 C
91 26-11-2020 07:30:00 2.9 C 97 % 2.47 C
92 26-11-2020 07:35:00 2.8 C 97 % 2.37 C
93 26-11-2020 07:40:00 2.8 C 97 % 2.37 C
94 26-11-2020 07:45:00 2.7 C 96 % 2.13 C
95 26-11-2020 07:50:00 2.7 C 96 % 2.13 C
96 26-11-2020 07:55:00 2.7 C 96 % 2.13 C
97 26-11-2020 08:00:00 2.7 C 96 % 2.13 C
98 26-11-2020 08:05:00 2.7 C 96 % 2.13 C
99 26-11-2020 08:10:00 2.7 C 96 % 2.13 C
100 26-11-2020 08:15:00 2.7 C 96 % 2.13 C
Sensor: Nr:Datum:Temp:Feuchte:Taupunkt:
Aussen-T/F 101 26-11-2020 08:20:00 2.6 C 96 % 2.03 C
102 26-11-2020 08:25:00 2.6 C 96 % 2.03 C
103 26-11-2020 08:30:00 2.6 C 96 % 2.03 C
104 26-11-2020 08:35:00 2.6 C 96 % 2.03 C
105 26-11-2020 08:40:00 2.6 C 96 % 2.03 C
106 26-11-2020 08:45:00 2.5 C 96 % 1.93 C
107 26-11-2020 08:50:00 2.4 C 96 % 1.83 C
108 26-11-2020 08:55:00 2.4 C 96 % 1.83 C
109 26-11-2020 09:00:00 2.4 C 96 % 1.83 C
110 26-11-2020 09:05:00 2.3 C 96 % 1.73 C
111 26-11-2020 09:10:00 2.3 C 96 % 1.73 C
112 26-11-2020 09:15:00 2.4 C 96 % 1.83 C
113 26-11-2020 09:20:00 2.4 C 96 % 1.83 C
114 26-11-2020 09:25:00 2.4 C 96 % 1.83 C
115 26-11-2020 09:30:00 2.6 C 97 % 2.17 C
116 26-11-2020 09:35:00 2.7 C 97 % 2.27 C
117 26-11-2020 09:40:00 2.8 C 97 % 2.37 C
118 26-11-2020 09:45:00 2.8 C 97 % 2.37 C
119 26-11-2020 09:50:00 2.8 C 97 % 2.37 C
120 26-11-2020 09:55:00 2.8 C 97 % 2.37 C
121 26-11-2020 10:00:00 2.7 C 96 % 2.13 C
122 26-11-2020 10:05:00 2.7 C 96 % 2.13 C
123 26-11-2020 10:10:00 2.7 C 96 % 2.13 C
124 26-11-2020 10:15:00 2.7 C 96 % 2.13 C
125 26-11-2020 10:20:00 2.7 C 97 % 2.27 C
Sensor: Nr:Datum:Temp:Feuchte:Taupunkt:
Aussen-T/F 126 26-11-2020 10:25:00 2.8 C 97 % 2.37 C
127 26-11-2020 10:30:00 2.8 C 96 % 2.23 C
128 26-11-2020 10:35:00 2.9 C 97 % 2.47 C
129 26-11-2020 10:40:00 2.9 C 97 % 2.47 C
130 26-11-2020 10:45:00 2.9 C 97 % 2.47 C
131 26-11-2020 10:50:00 2.9 C 97 % 2.47 C
132 26-11-2020 10:55:00 3.1 C 97 % 2.67 C
133 26-11-2020 11:00:00 3.2 C 97 % 2.77 C
134 26-11-2020 11:05:00 3.3 C 97 % 2.87 C
135 26-11-2020 11:10:00 3.3 C 97 % 2.87 C
136 26-11-2020 11:15:00 3.4 C 97 % 2.97 C
137 26-11-2020 11:20:00 3.4 C 97 % 2.97 C
138 26-11-2020 11:25:00 3.5 C 97 % 3.07 C
139 26-11-2020 11:30:00 3.6 C 97 % 3.17 C
140 26-11-2020 11:35:00 3.6 C 96 % 3.02 C
141 26-11-2020 11:40:00 3.7 C 96 % 3.12 C
142 26-11-2020 11:45:00 3.8 C 97 % 3.37 C
143 26-11-2020 11:50:00 3.9 C 96 % 3.32 C
144 26-11-2020 11:55:00 3.9 C 96 % 3.32 C
145 26-11-2020 12:00:00 4 C 96 % 3.42 C
146 26-11-2020 12:05:00 4 C 96 % 3.42 C
147 26-11-2020 12:10:00 4.1 C 96 % 3.52 C
148 26-11-2020 12:15:00 4.1 C 96 % 3.52 C
149 26-11-2020 12:20:00 4.2 C 96 % 3.62 C
150 26-11-2020 12:25:00 4.3 C 95 % 3.57 C
Sensor: Nr:Datum:Temp:Feuchte:Taupunkt:
Aussen-T/F 151 26-11-2020 12:30:00 4.3 C 95 % 3.57 C
152 26-11-2020 12:35:00 4.3 C 95 % 3.57 C
153 26-11-2020 12:40:00 4.4 C 95 % 3.67 C
154 26-11-2020 12:45:00 4.4 C 94 % 3.52 C
155 26-11-2020 12:50:00 4.4 C 94 % 3.52 C
156 26-11-2020 12:55:00 4.5 C 94 % 3.62 C
157 26-11-2020 13:00:00 4.6 C 94 % 3.72 C
158 26-11-2020 13:05:00 4.6 C 94 % 3.72 C
159 26-11-2020 13:10:00 4.6 C 94 % 3.72 C
160 26-11-2020 13:15:00 4.7 C 94 % 3.82 C
161 26-11-2020 13:20:00 4.7 C 93 % 3.67 C
162 26-11-2020 13:25:00 4.7 C 93 % 3.67 C
163 26-11-2020 13:30:00 4.8 C 93 % 3.77 C
164 26-11-2020 13:35:00 4.8 C 93 % 3.77 C
165 26-11-2020 13:40:00 4.8 C 93 % 3.77 C
166 26-11-2020 13:45:00 4.8 C 93 % 3.77 C
167 26-11-2020 13:50:00 4.9 C 93 % 3.87 C
168 26-11-2020 13:55:00 4.9 C 92 % 3.71 C
169 26-11-2020 14:00:00 4.9 C 92 % 3.71 C
170 26-11-2020 14:05:00 4.9 C 92 % 3.71 C
171 26-11-2020 14:10:00 4.9 C 92 % 3.71 C
172 26-11-2020 14:15:00 5 C 92 % 3.81 C
173 26-11-2020 14:20:00 5.1 C 92 % 3.91 C
174 26-11-2020 14:25:00 5.1 C 92 % 3.91 C
175 26-11-2020 14:30:00 5.2 C 92 % 4.01 C
Sensor: Nr:Datum:Temp:Feuchte:Taupunkt:
Aussen-T/F 176 26-11-2020 14:35:00 5.2 C 92 % 4.01 C
177 26-11-2020 14:40:00 5.2 C 92 % 4.01 C
178 26-11-2020 14:45:00 5.2 C 92 % 4.01 C
179 26-11-2020 14:50:00 5.2 C 91 % 3.85 C
180 26-11-2020 14:55:00 5.2 C 91 % 3.85 C
181 26-11-2020 15:00:00 5.2 C 91 % 3.85 C
182 26-11-2020 15:05:00 5.3 C 91 % 3.95 C
183 26-11-2020 15:10:00 5.2 C 91 % 3.85 C
184 26-11-2020 15:15:00 5.2 C 91 % 3.85 C
185 26-11-2020 15:20:00 5.1 C 91 % 3.76 C
186 26-11-2020 15:25:00 5.1 C 91 % 3.76 C
187 26-11-2020 15:30:00 5.1 C 91 % 3.76 C
188 26-11-2020 15:35:00 5.1 C 91 % 3.76 C
189 26-11-2020 15:40:00 5.1 C 91 % 3.76 C
190 26-11-2020 15:45:00 5.1 C 91 % 3.76 C
191 26-11-2020 15:50:00 5.1 C 92 % 3.91 C
192 26-11-2020 15:55:00 5 C 92 % 3.81 C
193 26-11-2020 16:00:00 5 C 92 % 3.81 C
194 26-11-2020 16:05:00 5 C 91 % 3.66 C
195 26-11-2020 16:10:00 4.9 C 92 % 3.71 C
196 26-11-2020 16:15:00 4.9 C 91 % 3.56 C
197 26-11-2020 16:20:00 4.9 C 91 % 3.56 C
198 26-11-2020 16:25:00 4.8 C 92 % 3.61 C
199 26-11-2020 16:30:00 4.8 C 92 % 3.61 C
200 26-11-2020 16:35:00 4.8 C 92 % 3.61 C
Sensor: Nr:Datum:Temp:Feuchte:Taupunkt:
Aussen-T/F 201 26-11-2020 16:40:00 4.7 C 92 % 3.51 C
202 26-11-2020 16:45:00 4.7 C 92 % 3.51 C
203 26-11-2020 16:50:00 4.7 C 92 % 3.51 C
204 26-11-2020 16:55:00 4.6 C 92 % 3.42 C
205 26-11-2020 17:00:00 4.6 C 92 % 3.42 C
206 26-11-2020 17:05:00 4.5 C 92 % 3.32 C
207 26-11-2020 17:10:00 4.4 C 92 % 3.22 C
208 26-11-2020 17:15:00 4.4 C 92 % 3.22 C
209 26-11-2020 17:20:00 4.4 C 92 % 3.22 C
210 26-11-2020 17:25:00 4.4 C 92 % 3.22 C
211 26-11-2020 17:30:00 4.4 C 93 % 3.37 C
212 26-11-2020 17:35:00 4.3 C 93 % 3.27 C
213 26-11-2020 17:40:00 4.3 C 93 % 3.27 C
214 26-11-2020 17:45:00 4.3 C 93 % 3.27 C
215 26-11-2020 17:50:00 4.3 C 93 % 3.27 C
216 26-11-2020 17:55:00 4.3 C 93 % 3.27 C
217 26-11-2020 18:00:00 4.2 C 93 % 3.17 C
218 26-11-2020 18:05:00 4.2 C 93 % 3.17 C
219 26-11-2020 18:10:00 4.2 C 93 % 3.17 C
220 26-11-2020 18:15:00 4.2 C 93 % 3.17 C
221 26-11-2020 18:20:00 4.2 C 93 % 3.17 C
222 26-11-2020 18:25:00 4.2 C 93 % 3.17 C
223 26-11-2020 18:30:00 4.2 C 93 % 3.17 C
224 26-11-2020 18:35:00 4.2 C 93 % 3.17 C
225 26-11-2020 18:40:00 4.1 C 93 % 3.07 C
Sensor: Nr:Datum:Temp:Feuchte:Taupunkt:
Aussen-T/F 226 26-11-2020 18:45:00 4.1 C 93 % 3.07 C
227 26-11-2020 18:50:00 4.1 C 93 % 3.07 C
228 26-11-2020 18:55:00 4.1 C 93 % 3.07 C
229 26-11-2020 19:00:00 4.1 C 93 % 3.07 C
230 26-11-2020 19:05:00 4.1 C 93 % 3.07 C
231 26-11-2020 19:10:00 4.1 C 93 % 3.07 C
232 26-11-2020 19:15:00 4.1 C 93 % 3.07 C
233 26-11-2020 19:20:00 4.1 C 93 % 3.07 C
234 26-11-2020 19:25:00 4.1 C 93 % 3.07 C
235 26-11-2020 19:30:00 4.1 C 93 % 3.07 C
236 26-11-2020 19:35:00 4.1 C 93 % 3.07 C
237 26-11-2020 19:40:00 4.1 C 93 % 3.07 C
238 26-11-2020 19:45:00 4.1 C 93 % 3.07 C
239 26-11-2020 19:50:00 4.1 C 93 % 3.07 C
240 26-11-2020 19:55:00 4.1 C 93 % 3.07 C
241 26-11-2020 20:00:00 4.1 C 93 % 3.07 C
242 26-11-2020 20:05:00 4 C 93 % 2.97 C
243 26-11-2020 20:10:00 4 C 93 % 2.97 C
244 26-11-2020 20:15:00 4.1 C 93 % 3.07 C
245 26-11-2020 20:20:00 4.1 C 93 % 3.07 C
246 26-11-2020 20:25:00 4 C 93 % 2.97 C
247 26-11-2020 20:30:00 3.9 C 93 % 2.87 C
248 26-11-2020 20:35:00 3.9 C 93 % 2.87 C
249 26-11-2020 20:40:00 3.8 C 92 % 2.62 C
250 26-11-2020 20:45:00 3.6 C 92 % 2.42 C
Sensor: Nr:Datum:Temp:Feuchte:Taupunkt:
Aussen-T/F 251 26-11-2020 20:50:00 3.4 C 92 % 2.23 C
252 26-11-2020 20:55:00 3.3 C 92 % 2.13 C
253 26-11-2020 21:00:00 3.2 C 92 % 2.03 C
254 26-11-2020 21:05:00 3.1 C 92 % 1.93 C
255 26-11-2020 21:10:00 3.1 C 93 % 2.08 C
256 26-11-2020 21:15:00 3 C 93 % 1.98 C
257 26-11-2020 21:20:00 2.9 C 93 % 1.88 C
258 26-11-2020 21:25:00 2.8 C 93 % 1.78 C
259 26-11-2020 21:30:00 2.8 C 93 % 1.78 C
260 26-11-2020 21:35:00 2.7 C 93 % 1.68 C
261 26-11-2020 21:40:00 2.6 C 93 % 1.59 C
262 26-11-2020 21:45:00 2.5 C 93 % 1.49 C
263 26-11-2020 21:50:00 2.4 C 93 % 1.39 C
264 26-11-2020 21:55:00 2.5 C 94 % 1.63 C
265 26-11-2020 22:00:00 2.6 C 94 % 1.73 C
266 26-11-2020 22:05:00 2.8 C 94 % 1.93 C
267 26-11-2020 22:10:00 2.8 C 94 % 1.93 C
268 26-11-2020 22:15:00 2.8 C 94 % 1.93 C
269 26-11-2020 22:20:00 2.8 C 94 % 1.93 C
270 26-11-2020 22:25:00 2.9 C 94 % 2.03 C
271 26-11-2020 22:30:00 2.9 C 94 % 2.03 C
272 26-11-2020 22:35:00 2.9 C 94 % 2.03 C
273 26-11-2020 22:40:00 2.9 C 94 % 2.03 C
274 26-11-2020 22:45:00 3 C 94 % 2.13 C
275 26-11-2020 22:50:00 3 C 94 % 2.13 C
Sensor: Nr:Datum:Temp:Feuchte:Taupunkt:
Aussen-T/F 276 26-11-2020 22:55:00 3 C 94 % 2.13 C
277 26-11-2020 23:00:00 3 C 94 % 2.13 C
278 26-11-2020 23:05:00 2.9 C 94 % 2.03 C
279 26-11-2020 23:10:00 2.8 C 94 % 1.93 C
280 26-11-2020 23:15:00 2.8 C 94 % 1.93 C
281 26-11-2020 23:20:00 2.8 C 94 % 1.93 C
282 26-11-2020 23:25:00 2.7 C 94 % 1.83 C
283 26-11-2020 23:30:00 2.6 C 94 % 1.73 C
284 26-11-2020 23:35:00 2.5 C 94 % 1.63 C
285 26-11-2020 23:40:00 2.4 C 94 % 1.54 C
286 26-11-2020 23:45:00 2.3 C 94 % 1.44 C
287 26-11-2020 23:50:00 2.2 C 94 % 1.34 C
288 26-11-2020 23:55:00 2.1 C 94 % 1.24 C

Legende:
   Min
   Max


Maximal/Minimal-Werte vom 26.11.2020 - 26.11.2020

Sensor Min Max Avg
Temp
(Aussen-T/F)
1.6 °C
26-11-2020  00:00:00
5.3 °C
26-11-2020  15:05:00
3.4 °C
Feuchte
(Aussen-T/F)
91 %
26-11-2020  14:50:00
97 %
26-11-2020  02:20:00
94.75 %
Taupunkt
(Aussen-T/F)
1.03 C
26-11-2020  00:00:00
4.01 C
26-11-2020  14:30:00
2.62 C

Die Daten stammen von einer Davis Vantage Pro 2 Wetter-Station und werden unter Linux mit der Software wview2wettercgi und aufbereitet. Alle Angaben erfolgen ohne Gewähr für ihre Vollständigkeit oder Richtigkeit.
Kontakt: Rainer Krienke krienke@uni-koblenz.de . Meine Webseiten an der Uni Koblenz oder privat.
Version: $Revision: 0.78 $